Dom Silverio, Brazil
Current Conditions -  °F | °C
As of 10:00 AM on Saturday 20 Dec 2014 (Local Time) from SBIP Reporting Station
Scattered Clouds Scattered Clouds  
Wind Chill: 82°   Ceiling: Unl
Heat Index: 85°   Visibility: 6mi
Dew Point: 68°   Wind: 10mph
Humidity: 62%   Direction: 60°ENE
Pressure: 29.94"   Gusts: NA
Location:  20.16°S, 42.97°W
Report Text: SBIP 201200Z 06009KT 9999 SCT020 28/20 Q1014
Loading
Personal Weather Stations






























Interactive Weather Map New forecast layout! Learn more

10-Day Weather Forecast

Advertisements
Track Severe Weather on mobile